Time;durP1;ratioP1;P1;durP2;ratioP2;P2;SDS_P1;SDS_P2;PMS_P1;PMS_P2;Temp;Humidity;BMP_temperature;BMP_pressure;BME280_temperature;BME280_humidity;BME280_pressure;Samples;Min_cycle;Max_cycle;Signal;HPM_P1;HPM_P2
2023/12/02 00:02:00;;;;;;;12.13;6.88;;;;;;;-2.41;100.00;148063.72;10499681;28;20033;-69
2023/12/02 00:07:02;;;;;;;10.57;8.55;;;;;;;-2.54;100.00;148033.03;10499830;28;20040;-70
2023/12/02 00:12:04;;;;;;;10.38;8.98;;;;;;;-2.53;100.00;148035.59;10499937;28;20033;-69
2023/12/02 00:17:06;;;;;;;15.93;10.73;;;;;;;-2.63;100.00;148010.06;10499676;28;20496;-69
2023/12/02 00:22:08;;;;;;;9.43;8.43;;;;;;;-2.43;100.00;148058.63;10499414;28;20511;-69
2023/12/02 00:27:10;;;;;;;11.52;8.20;;;;;;;-2.55;100.00;148029.22;10505064;28;20040;-70
2023/12/02 00:32:12;;;;;;;14.30;9.48;;;;;;;-2.55;100.00;148030.50;10507302;28;20072;-68
2023/12/02 00:37:28;;;;;;;9.98;8.63;;;;;;;-2.68;100.00;147997.28;10507525;28;20044;-68
2023/12/02 00:42:30;;;;;;;10.13;8.63;;;;;;;-2.53;100.00;148035.59;10507751;28;20045;-69
2023/12/02 00:47:31;;;;;;;10.45;8.07;;;;;;;-2.46;100.00;148052.22;10506948;28;20076;-69
2023/12/02 00:52:34;;;;;;;10.10;8.65;;;;;;;-2.66;100.00;148001.09;10506780;28;20127;-69
2023/12/02 00:57:36;;;;;;;10.93;9.13;;;;;;;-2.70;100.00;147990.88;10506257;28;20515;-68
2023/12/02 01:02:37;;;;;;;11.10;8.50;;;;;;;-2.54;100.00;148031.78;10506476;28;20049;-68
2023/12/02 01:07:39;;;;;;;12.38;9.13;;;;;;;-2.56;100.00;148027.97;10507022;28;20083;-70
2023/12/02 01:12:41;;;;;;;10.07;8.68;;;;;;;-2.65;100.00;148004.97;10505642;28;20044;-69
2023/12/02 01:17:43;;;;;;;10.50;9.27;;;;;;;-2.62;100.00;148012.59;10505090;28;20067;-70
2023/12/02 01:22:44;;;;;;;11.70;9.50;;;;;;;-2.51;100.00;148039.44;10504994;28;20408;-69
2023/12/02 01:27:47;;;;;;;10.95;9.02;;;;;;;-2.43;100.00;148059.91;10504977;28;20064;-70
2023/12/02 01:32:48;;;;;;;11.85;8.43;;;;;;;-2.58;100.00;148021.56;10487042;28;20460;-67
2023/12/02 01:37:50;;;;;;;11.27;8.93;;;;;;;-2.66;100.00;148001.09;10485396;28;20048;-68
2023/12/02 01:42:52;;;;;;;12.27;9.85;;;;;;;-2.59;100.00;148020.28;10505281;28;20048;-69
2023/12/02 01:47:55;;;;;;;11.13;9.98;;;;;;;-2.59;100.00;148020.28;10504228;28;20044;-67
2023/12/02 01:52:57;;;;;;;12.93;9.68;;;;;;;-2.53;100.00;148035.59;10504468;28;20041;-69
2023/12/02 01:57:58;;;;;;;13.23;10.52;;;;;;;-2.52;100.00;148036.91;10486607;28;20045;-69
2023/12/02 02:03:00;;;;;;;10.25;9.20;;;;;;;-2.61;100.00;148015.19;10504019;28;20036;-69
2023/12/02 02:08:02;;;;;;;11.05;9.50;;;;;;;-2.75;100.00;147979.41;10502837;28;20047;-69
2023/12/02 02:13:04;;;;;;;12.38;9.30;;;;;;;-2.61;100.00;148015.19;10502635;28;20036;-69
2023/12/02 02:18:06;;;;;;;13.65;9.85;;;;;;;-2.68;100.00;147997.28;10502520;28;20071;-69
2023/12/02 02:23:07;;;;;;;12.35;10.65;;;;;;;-2.79;100.00;147969.19;10521704;22;20036;-68
2023/12/02 02:28:09;;;;;;;15.70;10.02;;;;;;;-2.73;100.00;147984.53;10527082;28;20048;-68
2023/12/02 02:33:11;;;;;;;11.80;9.93;;;;;;;-2.69;100.00;147994.75;10544564;28;20036;-68
2023/12/02 02:38:13;;;;;;;16.70;10.63;;;;;;;-2.76;100.00;147976.84;10544808;28;20044;-69
2023/12/02 02:43:16;;;;;;;12.68;9.65;;;;;;;-2.80;100.00;147966.63;10528085;28;20044;-68
2023/12/02 02:48:18;;;;;;;13.38;10.63;;;;;;;-2.68;100.00;147997.28;10545811;28;20560;-68
2023/12/02 02:53:20;;;;;;;14.27;10.75;;;;;;;-2.80;100.00;147966.63;10526814;28;20074;-68
2023/12/02 02:58:22;;;;;;;10.93;9.57;;;;;;;-2.73;100.00;147984.53;10546602;28;20040;-68
2023/12/02 03:03:24;;;;;;;18.20;10.68;;;;;;;-2.82;100.00;147961.53;10545534;28;20032;-68
2023/12/02 03:08:25;;;;;;;21.67;12.38;;;;;;;-2.69;100.00;147993.47;10544610;28;20044;-68
2023/12/02 03:13:27;;;;;;;15.18;11.05;;;;;;;-2.96;100.00;147925.81;10544249;28;20079;-69
2023/12/02 03:18:29;;;;;;;12.98;10.95;;;;;;;-2.89;100.00;147943.66;10543094;28;20044;-70
2023/12/02 03:23:31;;;;;;;16.48;11.35;;;;;;;-2.84;100.00;147956.41;10542912;28;20044;-69
2023/12/02 03:28:33;;;;;;;16.42;11.27;;;;;;;-2.71;100.00;147988.34;10524478;28;20052;-69
2023/12/02 03:33:34;;;;;;;18.30;11.40;;;;;;;-2.72;100.00;147987.06;10542831;28;20036;-74
2023/12/02 03:38:38;;;;;;;15.77;12.30;;;;;;;-2.60;100.00;148016.47;10542657;28;20040;-70
2023/12/02 03:43:40;;;;;;;17.65;12.55;;;;;;;-2.37;100.00;148073.94;10543712;28;20430;-68
2023/12/02 03:48:58;;;;;;;19.40;12.23;;;;;;;-2.76;100.00;147976.84;10528744;28;20123;-68
2023/12/02 03:54:00;;;;;;;16.88;12.52;;;;;;;-2.77;100.00;147974.31;10543418;28;20487;-69
2023/12/02 03:59:02;;;;;;;14.98;12.73;;;;;;;-2.79;100.00;147969.19;10541222;28;20074;-69
2023/12/02 04:04:05;;;;;;;18.27;12.68;;;;;;;-2.86;100.00;147951.31;10525391;28;20044;-69
2023/12/02 04:09:09;;;;;;;20.45;13.30;;;;;;;-2.66;100.00;148002.38;10523384;28;20464;-68
2023/12/02 04:14:11;;;;;;;15.10;12.98;;;;;;;-2.79;100.00;147969.19;10543784;28;20118;-69
2023/12/02 04:19:13;;;;;;;21.83;13.75;;;;;;;-2.74;100.00;147980.72;10541083;28;20051;-69
2023/12/02 04:24:15;;;;;;;20.05;13.40;;;;;;;-2.98;100.00;147921.94;10541589;28;20040;-69
2023/12/02 04:29:17;;;;;;;19.65;13.77;;;;;;;-2.87;100.00;147948.78;10540937;28;20048;-69
2023/12/02 04:34:19;;;;;;;21.13;13.68;;;;;;;-2.72;100.00;147985.81;10523641;28;20414;-69
2023/12/02 04:39:21;;;;;;;20.75;14.93;;;;;;;-2.78;100.00;147971.75;10540693;28;20078;-69
2023/12/02 04:44:23;;;;;;;18.95;13.23;;;;;;;-3.04;100.00;147906.63;10540918;28;20498;-68
2023/12/02 04:49:24;;;;;;;23.67;13.93;;;;;;;-3.05;100.00;147905.38;10540782;28;20463;-70
2023/12/02 04:54:26;;;;;;;22.25;14.73;;;;;;;-2.95;100.00;147929.63;10523607;28;20044;-69
2023/12/02 04:59:28;;;;;;;19.23;14.10;;;;;;;-3.03;100.00;147907.91;10522353;28;20139;-69
2023/12/02 05:04:30;;;;;;;16.77;12.90;;;;;;;-3.09;100.00;147893.88;10522714;28;20078;-69
2023/12/02 05:09:31;;;;;;;22.98;15.38;;;;;;;-3.18;100.00;147870.91;10521467;28;20040;-69
2023/12/02 05:14:34;;;;;;;19.23;14.85;;;;;;;-3.39;100.00;147818.56;10545619;28;20080;-68
2023/12/02 05:19:36;;;;;;;24.55;14.60;;;;;;;-3.37;100.00;147823.63;10547885;28;20047;-68
2023/12/02 05:24:38;;;;;;;26.30;15.23;;;;;;;-3.31;100.00;147838.97;10546804;28;20036;-68
2023/12/02 05:29:40;;;;;;;21.30;15.20;;;;;;;-3.50;100.00;147790.44;10546968;28;20097;-69
2023/12/02 05:34:41;;;;;;;21.65;13.25;;;;;;;-3.55;100.00;147778.97;10546618;28;20091;-68
2023/12/02 05:39:43;;;;;;;20.55;13.35;;;;;;;-3.64;100.00;147757.28;10547055;28;20059;-69
2023/12/02 05:44:45;;;;;;;16.75;12.63;;;;;;;-3.51;100.00;147789.19;10546622;28;20055;-68
2023/12/02 05:49:47;;;;;;;24.42;15.02;;;;;;;-3.68;100.00;147747.06;10528781;28;20109;-69
2023/12/02 05:54:48;;;;;;;23.27;14.50;;;;;;;-3.70;100.00;147740.72;10547571;28;20067;-69
2023/12/02 05:59:50;;;;;;;29.38;14.82;;;;;;;-3.75;100.00;147727.97;10545995;28;20097;-68
2023/12/02 06:04:52;;;;;;;28.52;15.93;;;;;;;-3.77;100.00;147724.09;10546676;28;20067;-69
2023/12/02 06:09:54;;;;;;;30.83;15.38;;;;;;;-3.80;100.00;147716.47;10545958;28;20421;-70
2023/12/02 06:14:56;;;;;;;22.88;13.65;;;;;;;-3.74;100.00;147731.75;10544864;28;20118;-68
2023/12/02 06:19:57;;;;;;;26.52;13.80;;;;;;;-3.89;100.00;147693.50;10527451;28;20097;-68
2023/12/02 06:24:59;;;;;;;21.58;14.27;;;;;;;-3.94;100.00;147682.03;10544758;28;20390;-68
2023/12/02 06:30:01;;;;;;;20.90;12.98;;;;;;;-3.92;100.00;147685.84;10544395;28;20040;-68
2023/12/02 06:35:04;;;;;;;22.60;13.38;;;;;;;-3.88;100.00;147696.06;10543922;28;20048;-70
2023/12/02 06:40:07;;;;;;;19.35;11.70;;;;;;;-4.11;100.00;147638.66;10526440;28;20506;-69
2023/12/02 06:45:09;;;;;;;21.67;13.48;;;;;;;-4.22;100.00;147611.84;10546443;28;20478;-69
2023/12/02 06:50:11;;;;;;;24.33;13.05;;;;;;;-4.23;100.00;147609.31;10544048;28;20055;-69
2023/12/02 06:55:12;;;;;;;21.70;13.35;;;;;;;-4.19;100.00;147618.25;10545527;28;20525;-70
2023/12/02 07:00:18;;;;;;;26.65;13.50;;;;;;;-4.18;100.00;147622.06;10543788;28;20036;-69
2023/12/02 07:05:20;;;;;;;22.20;12.18;;;;;;;-4.26;100.00;147601.63;10544311;28;20051;-69
2023/12/02 07:10:22;;;;;;;22.80;12.82;;;;;;;-4.20;100.00;147615.69;10542972;28;20066;-69
2023/12/02 07:15:24;;;;;;;25.45;12.05;;;;;;;-4.38;100.00;147572.34;10524844;28;20040;-70
2023/12/02 07:20:26;;;;;;;22.75;12.52;;;;;;;-4.26;100.00;147600.38;10543580;28;20399;-68
2023/12/02 07:25:28;;;;;;;31.08;13.65;;;;;;;-4.33;100.00;147583.81;10545010;28;20051;-69
2023/12/02 07:30:30;;;;;;;23.38;12.38;;;;;;;-4.29;100.00;147592.69;10541183;28;20371;-68
2023/12/02 07:35:32;;;;;;;26.42;12.40;;;;;;;-4.18;100.00;147622.06;10541152;28;20040;-69
2023/12/02 07:40:35;;;;;;;22.95;13.18;;;;;;;-4.43;100.00;147558.28;10543107;28;20075;-68
2023/12/02 07:45:37;;;;;;;25.85;11.93;;;;;;;-4.53;100.00;147532.78;10542571;28;20051;-69
2023/12/02 07:50:39;;;;;;;23.50;12.25;;;;;;;-4.36;100.00;147576.16;10542256;28;20405;-69
2023/12/02 07:55:40;;;;;;;24.73;12.48;;;;;;;-4.35;100.00;147578.69;10524277;28;20058;-68
2023/12/02 08:00:45;;;;;;;21.05;12.35;;;;;;;-4.35;100.00;147578.69;10543778;28;20040;-69
2023/12/02 08:05:47;;;;;;;26.52;12.52;;;;;;;-4.22;100.00;147611.84;10542860;28;20101;-68
2023/12/02 08:10:49;;;;;;;18.55;12.43;;;;;;;-4.52;100.00;147536.59;10525609;28;20464;-68
2023/12/02 08:15:51;;;;;;;18.77;11.73;;;;;;;-4.61;100.00;147513.66;10524127;28;20077;-68
2023/12/02 08:20:53;;;;;;;28.00;11.40;;;;;;;-4.57;100.00;147525.13;10541807;28;20036;-68
2023/12/02 08:25:54;;;;;;;19.63;11.63;;;;;;;-4.53;100.00;147534.06;10565045;22;20122;-68
2023/12/02 08:30:57;;;;;;;16.85;10.80;;;;;;;-4.66;100.00;147500.91;10593660;28;20040;-68
2023/12/02 08:35:58;;;;;;;26.08;12.05;;;;;;;-4.57;100.00;147525.13;10592827;28;20043;-68
2023/12/02 08:41:00;;;;;;;16.02;10.02;;;;;;;-4.51;100.00;147539.19;10592770;28;20071;-68
2023/12/02 08:46:02;;;;;;;24.92;12.30;;;;;;;-4.54;100.00;147531.50;10594243;28;20060;-69
2023/12/02 08:51:04;;;;;;;22.85;10.77;;;;;;;-4.63;100.00;147508.56;10583773;28;20481;-67
2023/12/02 08:56:07;;;;;;;19.33;12.00;;;;;;;-4.46;100.00;147550.66;10601197;27;20050;-68
2023/12/02 09:01:08;;;;;;;21.58;11.20;;;;;;;-4.35;100.00;147578.69;10600088;28;20122;-69
2023/12/02 09:06:10;;;;;;;22.05;10.80;;;;;;;-4.29;100.00;147592.69;10601579;28;20066;-68
2023/12/02 09:11:12;;;;;;;24.83;13.80;;;;;;;-4.13;100.00;147634.78;10600495;28;20040;-68
2023/12/02 09:16:22;;;;;;;19.75;11.13;;;;;;;-4.27;100.00;147597.81;10597700;28;20055;-67
2023/12/02 09:21:44;;;;;;;21.25;11.70;;;;;;;-4.47;100.00;147548.06;10597464;28;20154;-68
2023/12/02 09:26:46;;;;;;;21.25;11.82;;;;;;;-4.45;100.00;147553.19;10584346;28;20048;-68
2023/12/02 09:31:48;;;;;;;18.25;10.98;;;;;;;-4.50;100.00;147541.72;10581874;28;20444;-68
2023/12/02 09:36:49;;;;;;;20.05;11.27;;;;;;;-4.61;100.00;147514.91;10570417;28;20050;-68
2023/12/02 09:42:00;;;;;;;23.90;10.95;;;;;;;-4.56;100.00;147526.38;10594950;28;20483;-68
2023/12/02 09:47:20;;;;;;;22.00;11.40;;;;;;;-4.48;100.00;147546.78;10560092;28;20036;-68
2023/12/02 09:52:33;;;;;;;18.52;11.50;;;;;;;-4.44;100.00;147557.00;10596171;28;20478;-69
2023/12/02 09:57:50;;;;;;;19.40;11.88;;;;;;;-4.34;100.00;147581.22;10594665;28;20039;-68
2023/12/02 10:03:07;;;;;;;22.23;11.27;;;;;;;-4.36;100.00;147577.41;10596790;28;20152;-69
2023/12/02 10:08:16;;;;;;;22.10;11.02;;;;;;;-4.37;100.00;147574.88;10594340;28;20059;-69
2023/12/02 10:13:24;;;;;;;18.95;11.20;;;;;;;-4.26;100.00;147600.38;10596692;28;20065;-68
2023/12/02 10:18:36;;;;;;;20.60;11.30;;;;;;;-4.22;100.00;147611.84;10596733;28;20039;-69
2023/12/02 10:24:11;;;;;;;15.43;9.75;;;;;;;-4.29;100.00;147592.69;10596586;28;20351;-69
2023/12/02 10:29:35;;;;;;;14.57;10.30;;;;;;;-4.33;100.00;147585.09;10597090;28;20122;-69
2023/12/02 10:34:51;;;;;;;20.10;10.73;;;;;;;-4.08;100.00;147646.28;10596324;28;20544;-68
2023/12/02 10:39:56;;;;;;;15.50;10.82;;;;;;;-3.86;100.00;147701.13;10595511;28;20135;-68
2023/12/02 10:45:04;;;;;;;15.35;10.20;;;;;;;-3.99;100.00;147667.97;10597324;28;20043;-67
2023/12/02 10:50:07;;;;;;;23.52;9.95;;;;;;;-3.92;100.00;147685.84;10595016;28;20054;-69
2023/12/02 10:55:11;;;;;;;18.77;10.82;;;;;;;-4.07;100.00;147650.13;10595810;28;20134;-68
2023/12/02 11:00:16;;;;;;;17.25;10.80;;;;;;;-3.93;100.00;147684.56;10594149;28;20118;-68
2023/12/02 11:05:28;;;;;;;23.80;10.45;;;;;;;-3.78;100.00;147721.56;10594472;28;20052;-69
2023/12/02 11:10:47;;;;;;;14.88;9.10;;;;;;;-3.83;100.00;147710.06;10592934;28;20448;-68
2023/12/02 11:16:20;;;;;;;17.45;11.10;;;;;;;-3.68;100.00;147745.78;10595996;28;20508;-70
2023/12/02 11:22:08;;;;;;;15.23;10.48;;;;;;;-3.80;100.00;147716.47;10593366;28;20047;-71
2023/12/02 11:27:33;;;;;;;18.23;10.48;;;;;;;-3.83;100.00;147708.81;10565937;28;20062;-69
2023/12/02 11:33:10;;;;;;;22.30;9.67;;;;;;;-3.59;100.00;147768.75;10575026;28;20062;-68
2023/12/02 11:38:29;;;;;;;19.48;10.52;;;;;;;-3.67;100.00;147749.66;10586506;28;20056;-69
2023/12/02 11:43:47;;;;;;;21.58;12.75;;;;;;;-3.47;100.00;147798.13;10572100;28;20051;-70
2023/12/02 11:49:11;;;;;;;16.85;10.93;;;;;;;-3.65;100.00;147753.47;10573133;28;20051;-68
2023/12/02 11:54:27;;;;;;;17.90;11.63;;;;;;;-3.68;100.00;147747.06;10592652;28;20055;-69
2023/12/02 11:59:47;;;;;;;20.80;10.32;;;;;;;-3.77;100.00;147722.81;10591167;28;20069;-69
2023/12/02 12:05:02;;;;;;;19.70;11.10;;;;;;;-3.81;100.00;147713.88;10554770;28;20451;-73
2023/12/02 12:10:07;;;;;;;19.05;11.07;;;;;;;-3.61;100.00;147763.66;10584453;28;20039;-73
2023/12/02 12:15:09;;;;;;;18.13;11.25;;;;;;;-3.52;100.00;147786.63;10583179;28;20043;-71
2023/12/02 12:20:19;;;;;;;17.00;10.50;;;;;;;-3.44;100.00;147807.06;10583435;28;20383;-72
2023/12/02 12:25:22;;;;;;;16.63;10.35;;;;;;;-3.66;100.00;147750.91;10592282;28;20502;-71
2023/12/02 12:30:24;;;;;;;16.67;11.10;;;;;;;-3.51;100.00;147787.91;10574049;28;20062;-72
2023/12/02 12:35:26;;;;;;;16.77;10.93;;;;;;;-3.58;100.00;147772.63;10591624;28;20067;-71
2023/12/02 12:40:29;;;;;;;20.45;11.02;;;;;;;-3.59;100.00;147770.03;10573277;28;20094;-72
2023/12/02 12:45:32;;;;;;;16.35;10.30;;;;;;;-3.73;100.00;147734.31;10591650;28;20048;-71
2023/12/02 12:50:36;;;;;;;15.60;9.32;;;;;;;-3.73;100.00;147734.31;10590985;28;20095;-72
2023/12/02 12:55:53;;;;;;;11.43;8.18;;;;;;;-3.57;100.00;147773.88;10591464;28;20102;-71
2023/12/02 13:00:58;;;;;;;17.65;10.55;;;;;;;-3.49;100.00;147793.03;10592639;28;20494;-72
2023/12/02 13:06:22;;;;;;;12.77;8.30;;;;;;;-3.65;100.00;147753.47;10590676;28;20066;-72
2023/12/02 13:11:29;;;;;;;9.98;8.30;;;;;;;-3.65;100.00;147753.47;10590277;28;20081;-71
2023/12/02 13:16:32;;;;;;;10.45;6.57;;;;;;;-3.68;100.00;147747.06;10572165;28;20047;-72
2023/12/02 13:21:35;;;;;;;11.18;8.18;;;;;;;-3.62;100.00;147761.13;10589653;28;20036;-73
2023/12/02 13:26:39;;;;;;;13.98;9.88;;;;;;;-3.31;100.00;147840.25;10589877;28;20074;-72
2023/12/02 13:31:42;;;;;;;11.80;8.77;;;;;;;-3.57;100.00;147773.88;10588034;28;20062;-72
2023/12/02 13:36:49;;;;;;;13.15;8.93;;;;;;;-3.34;100.00;147831.31;10590584;28;20410;-71
2023/12/02 13:41:52;;;;;;;13.15;8.93;;;;;;;-3.53;100.00;147782.81;10593620;28;20047;-71
2023/12/02 13:46:56;;;;;;;10.18;7.78;;;;;;;-3.66;100.00;147752.19;10588192;28;20035;-71
2023/12/02 13:52:29;;;;;;;14.30;8.95;;;;;;;-3.68;100.00;147745.78;10589301;28;20110;-72
2023/12/02 13:57:34;;;;;;;10.40;7.25;;;;;;;-3.57;100.00;147775.16;10546622;28;20074;-71
2023/12/02 14:03:11;;;;;;;7.45;5.60;;;;;;;-3.65;100.00;147753.47;10587475;28;20086;-71
2023/12/02 14:08:17;;;;;;;9.75;6.90;;;;;;;-3.79;100.00;147717.75;10488607;28;20076;-72
2023/12/02 14:13:41;;;;;;;8.80;7.05;;;;;;;-3.66;100.00;147750.91;10588829;28;20044;-71
2023/12/02 14:19:14;;;;;;;8.90;6.70;;;;;;;-3.71;100.00;147739.44;10587208;28;20494;-72
2023/12/02 14:24:54;;;;;;;9.90;7.68;;;;;;;-3.54;100.00;147781.56;10569744;28;20024;-71
2023/12/02 14:30:13;;;;;;;12.25;7.60;;;;;;;-3.52;100.00;147786.63;10589726;28;20048;-69
2023/12/02 14:35:46;;;;;;;9.82;8.02;;;;;;;-3.48;100.00;147795.59;10588608;28;20040;-69
2023/12/02 14:41:20;;;;;;;11.63;8.40;;;;;;;-3.57;100.00;147775.16;10573735;28;20039;-69
2023/12/02 14:46:22;;;;;;;10.63;7.82;;;;;;;-3.69;100.00;147744.53;10570113;28;20036;-69
2023/12/02 14:51:24;;;;;;;25.42;14.38;;;;;;;-3.53;100.00;147784.09;10569921;28;20047;-69
2023/12/02 14:56:26;;;;;;;11.90;8.55;;;;;;;-3.68;100.00;147747.06;10587654;28;20040;-70
2023/12/02 15:01:37;;;;;;;11.38;8.57;;;;;;;-3.68;100.00;147745.78;10587472;28;20482;-69
2023/12/02 15:06:40;;;;;;;13.63;8.40;;;;;;;-3.75;100.00;147729.22;10586558;28;20039;-70
2023/12/02 15:11:42;;;;;;;15.85;8.52;;;;;;;-3.65;100.00;147753.47;10568544;28;20078;-69
2023/12/02 15:16:47;;;;;;;11.98;8.55;;;;;;;-3.70;100.00;147741.97;10585708;28;20138;-69
2023/12/02 15:22:10;;;;;;;13.57;11.52;;;;;;;-3.45;99.67;147803.22;10567440;28;20036;-69
2023/12/02 15:27:12;;;;;;;10.13;7.65;;;;;;;-3.79;100.00;147719.00;10585340;28;20051;-69
2023/12/02 15:32:18;;;;;;;10.13;7.28;;;;;;;-3.71;100.00;147739.44;10587775;28;20508;-69
2023/12/02 15:37:21;;;;;;;11.03;7.20;;;;;;;-3.59;99.21;147770.03;10586324;28;20107;-69
2023/12/02 15:42:23;;;;;;;10.32;7.47;;;;;;;-3.78;99.97;147721.56;10586659;28;20027;-68
2023/12/02 15:47:26;;;;;;;10.30;6.82;;;;;;;-3.88;100.00;147696.06;10584080;28;20039;-71
2023/12/02 15:52:28;;;;;;;10.52;7.75;;;;;;;-3.59;98.79;147768.75;10584394;28;20039;-70
2023/12/02 15:57:30;;;;;;;8.80;6.68;;;;;;;-3.76;99.71;147725.38;10583217;28;20047;-70
2023/12/02 16:02:32;;;;;;;11.50;7.75;;;;;;;-3.58;99.00;147772.63;10584338;28;20047;-69
2023/12/02 16:07:35;;;;;;;10.57;7.45;;;;;;;-3.69;100.00;147743.25;10548527;28;20039;-69
2023/12/02 16:12:42;;;;;;;18.25;13.73;;;;;;;-3.43;98.97;147808.34;10584317;28;20043;-69
2023/12/02 16:17:44;;;;;;;11.82;8.73;;;;;;;-3.50;98.66;147790.44;10583929;28;20044;-69
2023/12/02 16:22:50;;;;;;;10.52;9.10;;;;;;;-3.58;100.00;147772.63;10583487;28;20078;-68
2023/12/02 16:27:52;;;;;;;10.57;9.27;;;;;;;-3.41;98.97;147813.41;10565507;28;20152;-69
2023/12/02 16:32:54;;;;;;;11.38;9.75;;;;;;;-3.24;97.02;147855.56;10583962;28;20078;-68
2023/12/02 16:37:57;;;;;;;17.88;12.52;;;;;;;-3.44;98.38;147807.06;10583561;28;20104;-68
2023/12/02 16:42:59;;;;;;;12.10;10.70;;;;;;;-3.35;98.29;147828.75;10583777;28;20036;-70
2023/12/02 16:48:01;;;;;;;14.77;11.75;;;;;;;-3.42;99.07;147810.88;10564737;28;20130;-69
2023/12/02 16:53:03;;;;;;;11.30;8.65;;;;;;;-3.62;100.00;147761.13;10583177;28;20463;-68
2023/12/02 16:58:08;;;;;;;19.60;15.43;;;;;;;-3.46;99.47;147801.94;10582813;28;20059;-68
2023/12/02 17:03:29;;;;;;;10.23;8.07;;;;;;;-3.78;100.00;147720.28;10582824;28;20051;-68
2023/12/02 17:08:56;;;;;;;10.90;8.27;;;;;;;-3.88;100.00;147696.06;10576382;28;20063;-68
2023/12/02 17:14:05;;;;;;;15.13;10.40;;;;;;;-3.82;100.00;147711.34;10587600;28;20044;-69
2023/12/02 17:19:11;;;;;;;11.77;8.40;;;;;;;-3.90;100.00;147692.19;10573476;28;20035;-68
2023/12/02 17:24:29;;;;;;;14.48;10.85;;;;;;;-3.63;100.00;147758.53;10563430;28;20036;-68
2023/12/02 17:29:35;;;;;;;19.15;10.15;;;;;;;-3.67;100.00;147749.66;10540443;28;20048;-68
2023/12/02 17:34:37;;;;;;;14.48;11.48;;;;;;;-3.68;100.00;147747.06;10547275;28;20119;-69
2023/12/02 17:39:39;;;;;;;15.32;10.05;;;;;;;-3.62;100.00;147762.41;10547766;28;20495;-69
2023/12/02 17:44:40;;;;;;;16.38;11.32;;;;;;;-3.58;100.00;147771.34;10546866;28;20054;-69
2023/12/02 17:49:42;;;;;;;17.45;9.82;;;;;;;-3.53;100.00;147782.81;10547584;28;20415;-69
2023/12/02 17:54:44;;;;;;;16.88;11.80;;;;;;;-3.54;100.00;147781.56;10546355;28;20042;-69
2023/12/02 17:59:46;;;;;;;15.30;10.70;;;;;;;-3.39;100.00;147818.56;10547235;28;20082;-69
2023/12/02 18:04:48;;;;;;;13.23;10.27;;;;;;;-3.42;100.00;147810.88;10548264;28;20112;-70
2023/12/02 18:09:53;;;;;;;11.63;9.73;;;;;;;-3.47;100.00;147798.13;10548286;28;20066;-70
2023/12/02 18:14:55;;;;;;;9.30;8.20;;;;;;;-3.63;100.00;147759.84;10549361;28;20040;-69
2023/12/02 18:19:57;;;;;;;10.07;8.25;;;;;;;-3.64;100.00;147756.00;10551257;28;20047;-71
2023/12/02 18:25:00;;;;;;;8.73;6.80;;;;;;;-3.48;100.00;147796.84;10549626;28;20048;-69
2023/12/02 18:30:03;;;;;;;9.18;8.15;;;;;;;-3.41;100.00;147813.41;10549033;28;20044;-70
2023/12/02 18:35:06;;;;;;;12.80;8.35;;;;;;;-3.39;98.23;147819.81;10549372;28;20032;-70
2023/12/02 18:40:12;;;;;;;11.27;9.10;;;;;;;-3.41;96.94;147813.41;10548817;28;20044;-69
2023/12/02 18:45:14;;;;;;;11.15;8.55;;;;;;;-3.77;99.38;147722.81;10547434;28;20040;-70
2023/12/02 18:50:17;;;;;;;10.30;7.60;;;;;;;-3.78;100.00;147721.56;10564543;28;20048;-69
2023/12/02 18:55:19;;;;;;;10.50;9.40;;;;;;;-3.91;100.00;147688.38;10564250;28;20044;-71
2023/12/02 19:00:22;;;;;;;9.38;8.00;;;;;;;-3.91;100.00;147689.66;10547837;28;20411;-69
2023/12/02 19:05:24;;;;;;;8.52;7.72;;;;;;;-4.08;100.00;147647.53;10548728;28;20047;-70
2023/12/02 19:10:26;;;;;;;8.25;7.38;;;;;;;-4.12;100.00;147637.38;10546111;28;20040;-69
2023/12/02 19:15:28;;;;;;;8.18;7.18;;;;;;;-4.00;100.00;147665.44;10561748;28;20032;-70
2023/12/02 19:20:31;;;;;;;8.15;7.35;;;;;;;-3.92;100.00;147685.84;10558877;28;20051;-71
2023/12/02 19:25:33;;;;;;;7.95;7.20;;;;;;;-3.92;100.00;147685.84;10547347;28;20028;-70
2023/12/02 19:30:35;;;;;;;11.48;8.60;;;;;;;-3.82;99.94;147712.63;10546265;28;20115;-70
2023/12/02 19:35:37;;;;;;;8.68;7.88;;;;;;;-3.81;98.97;147713.88;10560406;28;20043;-70
2023/12/02 19:40:39;;;;;;;10.00;8.98;;;;;;;-3.60;97.71;147767.47;10561239;28;20213;-70
2023/12/02 19:45:41;;;;;;;9.00;7.28;;;;;;;-3.71;98.19;147739.44;10543813;28;20048;-69
2023/12/02 19:50:44;;;;;;;5.40;4.35;;;;;;;-3.69;97.99;147744.53;10544356;28;20071;-70
2023/12/02 19:55:46;;;;;;;5.57;4.50;;;;;;;-3.82;98.50;147712.63;10561533;28;20122;-70
2023/12/02 20:00:49;;;;;;;6.40;5.68;;;;;;;-3.65;96.55;147754.72;10561175;28;20036;-70
2023/12/02 20:05:51;;;;;;;9.32;7.47;;;;;;;-3.61;95.75;147764.94;10561356;28;20430;-69
2023/12/02 20:10:54;;;;;;;5.28;4.78;;;;;;;-3.64;96.56;147756.00;10561593;28;20526;-69
2023/12/02 20:15:57;;;;;;;12.65;7.80;;;;;;;-3.79;97.19;147717.75;10545336;28;20040;-70
2023/12/02 20:20:59;;;;;;;6.18;5.45;;;;;;;-3.78;97.40;147721.56;10545611;28;20042;-70
2023/12/02 20:26:02;;;;;;;8.00;6.53;;;;;;;-3.68;96.69;147745.78;10555265;22;20068;-73
2023/12/02 20:31:04;;;;;;;7.75;6.75;;;;;;;-3.45;96.00;147804.53;10522961;28;20550;-72
2023/12/02 20:36:07;;;;;;;9.18;5.18;;;;;;;-3.50;95.63;147791.72;10523501;28;20090;-72
2023/12/02 20:41:08;;;;;;;7.38;6.03;;;;;;;-3.52;96.81;147785.38;10542200;28;20082;-72
2023/12/02 20:46:10;;;;;;;8.32;6.55;;;;;;;-3.59;97.71;147770.03;10549739;28;20032;-72
2023/12/02 20:51:12;;;;;;;6.47;5.82;;;;;;;-3.44;96.75;147805.78;10548574;28;20130;-73
2023/12/02 20:56:15;;;;;;;8.88;6.38;;;;;;;-3.40;96.06;147816.00;10548488;28;20063;-72
2023/12/02 21:01:17;;;;;;;13.75;7.78;;;;;;;-3.43;96.61;147808.34;10530155;28;20557;-72
2023/12/02 21:06:19;;;;;;;8.38;6.68;;;;;;;-3.53;98.17;147784.09;10547645;28;20112;-71
2023/12/02 21:11:20;;;;;;;7.45;6.40;;;;;;;-3.43;97.13;147808.34;10547729;28;20541;-71
2023/12/02 21:16:23;;;;;;;7.32;5.32;;;;;;;-3.35;96.74;147830.03;10546846;28;20048;-71
2023/12/02 21:21:24;;;;;;;7.18;5.88;;;;;;;-3.27;96.03;147847.94;10547400;28;20076;-71
2023/12/02 21:26:26;;;;;;;6.53;5.15;;;;;;;-3.36;96.04;147826.22;10546502;28;20101;-71
2023/12/02 21:31:28;;;;;;;9.60;4.88;;;;;;;-3.38;96.92;147821.09;10547252;28;20040;-72
2023/12/02 21:36:30;;;;;;;6.15;5.03;;;;;;;-3.36;96.22;147827.50;10546693;28;20040;-73
2023/12/02 21:41:35;;;;;;;5.70;4.55;;;;;;;-3.41;97.15;147814.75;10546439;28;20040;-71
2023/12/02 21:46:36;;;;;;;6.15;5.13;;;;;;;-3.34;95.53;147832.56;10527689;28;20111;-72
2023/12/02 21:51:46;;;;;;;7.72;5.50;;;;;;;-3.44;95.88;147805.78;10546100;28;20044;-71
2023/12/02 21:56:51;;;;;;;6.30;5.05;;;;;;;-3.31;95.89;147838.97;10544881;28;20130;-71
2023/12/02 22:01:54;;;;;;;6.03;4.60;;;;;;;-3.36;95.33;147827.50;10546676;28;20084;-71
2023/12/02 22:07:01;;;;;;;5.60;5.03;;;;;;;-3.32;94.60;147837.72;10544623;28;20040;-71
2023/12/02 22:12:15;;;;;;;;;;;;;;;-3.32;93.97;147836.38;10526680;28;20044;-70
2023/12/02 22:17:21;;;;;;;5.97;4.65;;;;;;;-3.30;94.23;147841.53;10544541;28;19920;-71
2023/12/02 22:22:44;;;;;;;6.05;5.20;;;;;;;-3.46;95.67;147800.66;10545626;28;20130;-70
2023/12/02 22:27:46;;;;;;;6.13;5.15;;;;;;;-3.32;95.32;147837.72;10544295;28;20048;-70
2023/12/02 22:32:59;;;;;;;6.47;5.13;;;;;;;-3.39;95.94;147819.81;10526419;28;20066;-71
2023/12/02 22:38:03;;;;;;;6.18;5.57;;;;;;;-3.16;95.43;147876.00;10544824;28;20060;-70
2023/12/02 22:43:05;;;;;;;7.45;5.68;;;;;;;-3.10;93.04;147892.59;10543398;28;20044;-70
2023/12/02 22:48:30;;;;;;;7.63;6.38;;;;;;;-3.09;93.54;147893.88;10525308;28;20506;-70
2023/12/02 22:53:40;;;;;;;7.90;6.78;;;;;;;-2.96;93.07;147927.06;10508896;28;20044;-70